createdAt,value
2018-01-15T00:01:31.109Z,12.73
2018-01-15T00:03:57.390Z,14.67
2018-01-15T00:06:23.721Z,14.67
2018-01-15T00:08:50.048Z,14.50
2018-01-15T00:11:16.310Z,14.80
2018-01-15T00:13:42.602Z,14.93
2018-01-15T00:16:08.939Z,15.20
2018-01-15T00:18:36.252Z,14.40
2018-01-15T00:21:02.554Z,15.00
2018-01-15T00:23:28.806Z,13.90
2018-01-15T00:25:55.484Z,14.13
2018-01-15T00:28:23.745Z,15.10
2018-01-15T00:30:50.003Z,13.20
2018-01-15T00:33:16.278Z,14.17
2018-01-15T00:35:42.592Z,14.07
2018-01-15T00:38:08.860Z,14.33
2018-01-15T00:40:35.143Z,14.53
2018-01-15T00:43:02.253Z,13.57
2018-01-15T00:45:28.531Z,13.80
2018-01-15T00:47:54.812Z,15.13
2018-01-15T00:50:21.846Z,14.80
2018-01-15T00:52:48.878Z,15.40
2018-01-15T00:55:15.150Z,15.27
2018-01-15T00:57:41.518Z,15.17
2018-01-15T01:00:08.521Z,13.37
2018-01-15T01:02:34.843Z,14.07
2018-01-15T01:05:01.130Z,14.33
2018-01-15T01:07:27.430Z,15.17
2018-01-15T01:09:53.702Z,14.13
2018-01-15T01:12:20.007Z,14.73
2018-01-15T01:14:46.306Z,15.23
2018-01-15T01:17:12.583Z,15.23
2018-01-15T01:19:38.884Z,15.40
2018-01-15T01:22:05.234Z,13.13
2018-01-15T01:24:31.522Z,14.80
2018-01-15T01:26:59.462Z,15.30
2018-01-15T01:29:27.283Z,15.57
2018-01-15T01:31:53.590Z,14.40
2018-01-15T01:34:19.898Z,14.63
2018-01-15T01:36:46.187Z,15.33
2018-01-15T01:39:12.449Z,13.73
2018-01-15T01:41:38.738Z,13.60
2018-01-15T01:44:05.018Z,14.73
2018-01-15T01:46:31.306Z,13.90
2018-01-15T01:48:57.643Z,14.87
2018-01-15T01:51:24.650Z,14.97
2018-01-15T01:53:50.923Z,14.37
2018-01-15T01:56:17.203Z,14.23
2018-01-15T01:58:44.242Z,13.53
2018-01-15T02:01:10.520Z,14.27
2018-01-15T02:03:36.875Z,12.77
2018-01-15T02:06:03.167Z,12.87
2018-01-15T02:08:29.495Z,14.13
2018-01-15T02:10:56.537Z,15.33
2018-01-15T02:13:22.871Z,14.33
2018-01-15T02:15:49.129Z,14.73
2018-01-15T02:18:15.430Z,14.60
2018-01-15T02:20:41.689Z,14.43
2018-01-15T02:23:08.711Z,13.30
2018-01-15T02:25:35.046Z,14.60
2018-01-15T02:28:01.344Z,14.57
2018-01-15T02:30:28.363Z,13.63
2018-01-15T02:32:55.450Z,14.50
2018-01-15T02:35:21.763Z,13.63
2018-01-15T02:37:48.066Z,13.77
2018-01-15T02:40:14.394Z,13.57
2018-01-15T02:42:41.427Z,14.33
2018-01-15T02:45:07.714Z,13.97
2018-01-15T02:47:34.761Z,14.50
2018-01-15T02:50:01.023Z,14.30
2018-01-15T02:52:27.282Z,13.50
2018-01-15T02:54:54.591Z,14.60
2018-01-15T02:57:20.878Z,15.30
2018-01-15T02:59:47.591Z,15.03
2018-01-15T03:02:13.919Z,14.87
2018-01-15T03:04:40.182Z,15.30
2018-01-15T03:07:07.187Z,14.63
2018-01-15T03:09:33.470Z,14.97
2018-01-15T03:11:59.748Z,13.93
2018-01-15T03:14:26.747Z,15.33
2018-01-15T03:16:53.047Z,14.20
2018-01-15T03:19:19.321Z,13.97
2018-01-15T03:21:45.613Z,13.17
2018-01-15T03:24:12.644Z,15.00
2018-01-15T03:26:39.732Z,13.40
2018-01-15T03:29:06.019Z,14.73
2018-01-15T03:31:32.311Z,13.77
2018-01-15T03:33:59.323Z,14.20
2018-01-15T03:36:25.578Z,13.43
2018-01-15T03:38:51.899Z,13.87
2018-01-15T03:41:18.223Z,14.00
2018-01-15T03:43:44.495Z,14.43
2018-01-15T03:46:10.789Z,14.30
2018-01-15T03:48:37.045Z,13.60
2018-01-15T03:51:03.342Z,13.33
2018-01-15T03:53:29.653Z,13.40
2018-01-15T03:55:55.914Z,14.60
2018-01-15T03:58:22.192Z,13.50
2018-01-15T04:00:49.273Z,14.73
2018-01-15T04:03:15.541Z,13.83
2018-01-15T04:05:42.560Z,14.30
2018-01-15T04:08:08.870Z,13.10
2018-01-15T04:10:35.135Z,14.07
2018-01-15T04:13:01.399Z,14.80
2018-01-15T04:15:27.703Z,13.80
2018-01-15T04:17:53.961Z,14.10
2018-01-15T04:20:20.995Z,15.53
2018-01-15T04:22:48.029Z,14.37
2018-01-15T04:25:15.064Z,14.47
2018-01-15T04:27:41.333Z,13.40
2018-01-15T04:30:07.662Z,14.53
2018-01-15T04:32:33.933Z,13.57
2018-01-15T04:35:00.225Z,14.10
2018-01-15T04:37:26.519Z,14.33
2018-01-15T04:39:52.790Z,15.50
2018-01-15T04:42:19.074Z,13.20
2018-01-15T04:44:45.374Z,13.57
2018-01-15T04:47:12.430Z,12.70
2018-01-15T04:49:38.789Z,14.27
2018-01-15T04:52:05.078Z,13.40
2018-01-15T04:54:31.323Z,13.77
2018-01-15T04:56:57.601Z,14.60
2018-01-15T04:59:28.764Z,14.00
2018-01-15T05:01:57.352Z,15.40
2018-01-15T05:04:25.944Z,14.83
2018-01-15T05:06:54.687Z,14.27
2018-01-15T05:09:20.989Z,13.40
2018-01-15T05:11:47.292Z,14.93
2018-01-15T05:14:13.596Z,15.17
2018-01-15T05:16:39.882Z,14.90
2018-01-15T05:19:06.219Z,14.77
2018-01-15T05:21:32.545Z,14.87
2018-01-15T05:23:58.827Z,12.93
2018-01-15T05:26:25.116Z,14.60
2018-01-15T05:28:51.393Z,12.10
2018-01-15T05:31:17.660Z,14.20
2018-01-15T05:33:43.969Z,15.33
2018-01-15T05:36:11.071Z,13.53
2018-01-15T05:38:37.415Z,14.87
2018-01-15T05:41:03.895Z,14.77
2018-01-15T05:43:30.352Z,12.93
2018-01-15T05:45:56.680Z,14.40
2018-01-15T05:48:23.746Z,13.30
2018-01-15T05:50:50.082Z,15.13
2018-01-15T05:53:16.436Z,14.33
2018-01-15T05:55:42.768Z,13.63
2018-01-15T05:58:09.893Z,14.27
2018-01-15T06:00:37.018Z,13.00
2018-01-15T06:03:03.314Z,14.47
2018-01-15T06:05:29.663Z,14.63
2018-01-15T06:07:56.691Z,16.70
2018-01-15T06:10:23.719Z,15.50
2018-01-15T06:12:50.056Z,15.77
2018-01-15T06:15:17.096Z,16.40
2018-01-15T06:17:43.371Z,15.40
2018-01-15T06:20:09.789Z,14.13
2018-01-15T06:22:36.908Z,14.63
2018-01-15T06:25:03.212Z,14.90
2018-01-15T06:27:29.501Z,16.43
2018-01-15T06:29:55.790Z,18.53
2018-01-15T06:32:22.818Z,16.83
2018-01-15T06:34:49.101Z,16.67
2018-01-15T06:37:15.407Z,16.50
2018-01-15T06:39:41.717Z,15.43
2018-01-15T06:42:08.032Z,16.60
2018-01-15T06:44:34.315Z,16.53
2018-01-15T06:47:00.579Z,17.00
2018-01-15T06:49:26.862Z,16.60
2018-01-15T06:51:53.129Z,16.53
2018-01-15T06:54:19.392Z,16.30
2018-01-15T06:56:45.681Z,15.43
2018-01-15T06:59:11.956Z,15.83
2018-01-15T07:01:40.821Z,17.43
2018-01-15T07:04:07.182Z,14.70
2018-01-15T07:06:33.492Z,15.30
2018-01-15T07:08:59.771Z,16.47
2018-01-15T07:11:26.077Z,17.47
2018-01-15T07:13:52.348Z,17.63
2018-01-15T07:16:19.386Z,15.77
2018-01-15T07:18:45.680Z,16.80
2018-01-15T07:21:12.081Z,17.80
2018-01-15T07:23:38.383Z,17.20
2018-01-15T07:26:04.690Z,16.70
2018-01-15T07:28:30.970Z,16.60
2018-01-15T07:30:57.238Z,15.47
2018-01-15T07:33:23.785Z,18.23
2018-01-15T07:35:50.040Z,18.73
2018-01-15T07:38:16.332Z,18.27
2018-01-15T07:40:42.620Z,17.10
2018-01-15T07:43:08.897Z,16.27
2018-01-15T07:45:35.183Z,16.27
2018-01-15T07:48:01.487Z,19.23
2018-01-15T07:50:28.510Z,18.57
2018-01-15T07:52:54.781Z,23.00
2018-01-15T07:55:21.122Z,24.57
2018-01-15T07:57:47.491Z,29.77
2018-01-15T08:00:13.816Z,23.80
2018-01-15T08:02:40.154Z,21.20
2018-01-15T08:05:06.473Z,35.70
2018-01-15T08:07:32.799Z,28.23
2018-01-15T08:09:59.146Z,25.63
2018-01-15T08:12:26.193Z,22.07
2018-01-15T08:14:52.453Z,20.53
2018-01-15T08:17:18.790Z,21.37
2018-01-15T08:19:45.132Z,23.27
2018-01-15T08:22:11.997Z,22.30
2018-01-15T08:24:39.085Z,21.67
2018-01-15T08:27:05.389Z,20.43
2018-01-15T08:29:32.297Z,22.67
2018-01-15T08:31:58.622Z,20.93
2018-01-15T08:34:24.906Z,21.10
2018-01-15T08:36:51.266Z,21.10
2018-01-15T08:39:17.541Z,22.03
2018-01-15T08:41:43.796Z,20.30
2018-01-15T08:44:10.818Z,22.73
2018-01-15T08:46:37.415Z,24.07
2018-01-15T08:49:03.699Z,22.70
2018-01-15T08:51:30.146Z,23.97
2018-01-15T08:53:56.978Z,23.73
2018-01-15T08:56:23.353Z,23.60
2018-01-15T08:58:50.414Z,26.63
2018-01-15T09:01:16.761Z,25.40
2018-01-15T09:03:43.039Z,24.57
2018-01-15T09:06:09.334Z,24.30
2018-01-15T09:08:35.653Z,20.27
2018-01-15T09:11:02.466Z,23.33
2018-01-15T09:13:29.207Z,27.30
2018-01-15T09:15:55.541Z,26.70
2018-01-15T09:18:22.277Z,26.20
2018-01-15T09:20:49.433Z,26.23
2018-01-15T09:23:15.756Z,25.60
2018-01-15T09:25:42.129Z,25.43
2018-01-15T09:28:08.416Z,26.87
2018-01-15T09:30:35.602Z,25.50
2018-01-15T09:33:01.890Z,28.80
2018-01-15T09:35:28.202Z,26.87
2018-01-15T09:37:54.571Z,23.10
2018-01-15T09:40:20.903Z,27.77
2018-01-15T09:42:47.168Z,26.87
2018-01-15T09:45:13.476Z,26.67
2018-01-15T09:47:39.773Z,28.37
2018-01-15T09:50:06.355Z,28.70
2018-01-15T09:52:32.766Z,28.70
2018-01-15T09:54:59.036Z,28.60
2018-01-15T09:57:25.333Z,26.17
2018-01-15T09:59:52.398Z,28.63
2018-01-15T10:02:18.940Z,29.17
2018-01-15T10:04:45.222Z,27.87
2018-01-15T10:07:11.573Z,26.27
2018-01-15T10:09:37.884Z,30.00
2018-01-15T10:12:04.178Z,38.77
2018-01-15T10:14:31.031Z,29.87
2018-01-15T10:16:57.298Z,33.03
2018-01-15T10:19:24.325Z,31.27
2018-01-15T10:21:51.523Z,33.70
2018-01-15T10:24:17.812Z,29.40
2018-01-15T10:26:44.104Z,33.07
2018-01-15T10:29:11.205Z,33.27
2018-01-15T10:31:37.493Z,27.83
2018-01-15T10:34:03.781Z,25.27
2018-01-15T10:36:30.845Z,29.33
2018-01-15T10:38:57.290Z,30.57
2018-01-15T10:41:24.445Z,42.10
2018-01-15T10:43:50.759Z,46.43
2018-01-15T10:46:17.931Z,29.00
2018-01-15T10:48:44.740Z,27.33
2018-01-15T10:51:11.030Z,29.93
2018-01-15T10:53:37.447Z,28.33
2018-01-15T10:56:08.147Z,31.97
2018-01-15T10:58:38.774Z,45.57
2018-01-15T11:01:11.297Z,65.50
2018-01-15T11:03:38.082Z,28.77
2018-01-15T11:06:05.470Z,28.30
2018-01-15T11:08:31.810Z,28.07
2018-01-15T11:10:58.178Z,27.57
2018-01-15T11:13:48.020Z,29.23
2018-01-15T11:16:21.566Z,31.20
2018-01-15T11:18:47.910Z,29.67
2018-01-15T11:21:14.412Z,27.07
2018-01-15T11:23:41.205Z,26.07
2018-01-15T11:26:08.242Z,28.13
2018-01-15T11:31:09.770Z,26.40
2018-01-15T11:33:36.059Z,27.60
2018-01-15T11:36:02.707Z,24.33
2018-01-15T11:38:29.022Z,24.97
2018-01-15T11:40:55.863Z,24.50
2018-01-15T11:43:22.584Z,26.43
2018-01-15T11:45:49.006Z,25.50
2018-01-15T11:48:15.509Z,25.23
2018-01-15T11:50:41.766Z,24.80
2018-01-15T11:53:16.970Z,26.10
2018-01-15T11:55:43.488Z,22.83
2018-01-15T11:58:16.249Z,25.83
2018-01-15T12:00:42.565Z,26.23
2018-01-15T12:03:26.312Z,25.37
2018-01-15T12:05:52.621Z,25.13
2018-01-15T12:08:18.910Z,25.20
2018-01-15T12:10:45.510Z,24.23
2018-01-15T12:13:12.593Z,25.40
2018-01-15T12:15:38.853Z,23.87
2018-01-15T12:18:05.901Z,26.03
2018-01-15T12:20:34.793Z,26.20
2018-01-15T12:23:01.201Z,24.53
2018-01-15T12:25:27.456Z,24.30
2018-01-15T12:27:54.556Z,23.20
2018-01-15T12:30:20.833Z,24.17
2018-01-15T12:32:47.174Z,23.07
2018-01-15T12:35:13.485Z,23.47
2018-01-15T12:37:43.174Z,23.13
2018-01-15T12:40:09.533Z,23.53
2018-01-15T12:42:36.596Z,23.53
2018-01-15T12:45:02.892Z,22.60
2018-01-15T12:47:29.232Z,24.47
2018-01-15T12:49:55.572Z,22.87
2018-01-15T12:52:22.625Z,21.17
2018-01-15T12:54:48.940Z,22.30
2018-01-15T12:57:15.209Z,21.53
2018-01-15T12:59:41.473Z,21.70
2018-01-15T13:02:07.761Z,24.07
2018-01-15T13:04:34.774Z,22.33
2018-01-15T13:07:01.093Z,21.83
2018-01-15T13:09:27.401Z,22.53
2018-01-15T13:11:53.669Z,21.77
2018-01-15T13:14:19.945Z,23.57
2018-01-15T13:16:53.780Z,21.40
2018-01-15T13:19:25.417Z,22.57
2018-01-15T13:21:55.793Z,22.00
2018-01-15T13:24:22.121Z,21.20
2018-01-15T13:26:48.417Z,26.87
2018-01-15T13:29:15.514Z,22.33
2018-01-15T13:31:41.817Z,21.53
2018-01-15T13:34:08.093Z,21.70
2018-01-15T13:36:34.433Z,20.57
2018-01-15T13:39:00.835Z,21.73
2018-01-15T13:41:28.095Z,20.00
2018-01-15T13:43:54.733Z,21.37
2018-01-15T13:46:21.018Z,20.27
2018-01-15T13:48:48.298Z,19.43
2018-01-15T13:51:14.783Z,18.77
2018-01-15T13:53:42.034Z,19.87
2018-01-15T13:56:08.545Z,19.17
2018-01-15T13:58:35.198Z,19.07
2018-01-15T14:01:01.886Z,19.67
2018-01-15T14:03:28.793Z,18.13
2018-01-15T14:05:55.138Z,25.47
2018-01-15T14:08:22.230Z,24.13
2018-01-15T14:10:48.489Z,31.23
2018-01-15T14:13:14.794Z,45.80
2018-01-15T14:15:41.812Z,26.63
2018-01-15T14:18:08.804Z,25.73
2018-01-15T14:20:35.130Z,17.97
2018-01-15T14:23:01.465Z,18.77
2018-01-15T14:25:28.262Z,18.93
2018-01-15T14:27:54.563Z,17.37
2018-01-15T14:30:20.825Z,19.10
2018-01-15T14:32:47.107Z,17.83
2018-01-15T14:35:13.426Z,16.23
2018-01-15T14:37:39.728Z,17.40
2018-01-15T14:40:06.079Z,25.23
2018-01-15T14:42:32.346Z,19.13
2018-01-15T14:44:58.684Z,21.17
2018-01-15T14:47:24.960Z,16.43
2018-01-15T14:49:51.990Z,17.90
2018-01-15T14:52:19.074Z,14.63
2018-01-15T14:54:45.395Z,14.90
2018-01-15T14:57:11.706Z,15.47
2018-01-15T14:59:38.024Z,14.30
2018-01-15T15:02:04.315Z,14.60
2018-01-15T15:04:30.879Z,15.37
2018-01-15T15:06:57.200Z,14.07
2018-01-15T15:09:23.519Z,14.37
2018-01-15T15:11:49.817Z,14.07
2018-01-15T15:14:18.820Z,14.43
2018-01-15T15:16:47.255Z,14.50
2018-01-15T15:19:13.554Z,13.80
2018-01-15T15:21:39.875Z,13.83
2018-01-15T15:24:06.309Z,14.77
2018-01-15T15:26:32.817Z,14.30
2018-01-15T15:28:59.147Z,13.93
2018-01-15T15:31:25.551Z,15.67
2018-01-15T15:33:51.994Z,14.60
2018-01-15T15:36:18.250Z,15.97
2018-01-15T15:38:44.610Z,16.53
2018-01-15T15:41:10.990Z,16.10
2018-01-15T15:43:37.309Z,15.00
2018-01-15T15:46:03.623Z,16.33
2018-01-15T15:48:29.953Z,15.57
2018-01-15T15:50:56.237Z,16.40
2018-01-15T15:53:22.550Z,17.37
2018-01-15T15:55:49.641Z,16.37
2018-01-15T15:58:15.949Z,16.37
2018-01-15T16:00:42.254Z,18.77
2018-01-15T16:03:08.604Z,18.47
2018-01-15T16:05:38.899Z,18.17
2018-01-15T16:08:06.445Z,19.80
2018-01-15T16:10:32.787Z,19.20
2018-01-15T16:12:59.041Z,17.97
2018-01-15T16:15:25.337Z,18.83
2018-01-15T16:17:52.515Z,18.93
2018-01-15T16:20:18.917Z,17.73
2018-01-15T16:22:57.560Z,18.97
2018-01-15T16:25:23.984Z,20.33
2018-01-15T16:27:50.253Z,20.03
2018-01-15T16:30:16.556Z,20.27
2018-01-15T16:32:43.000Z,21.00
2018-01-15T16:35:09.425Z,30.93
2018-01-15T16:37:36.714Z,26.63
2018-01-15T16:40:03.110Z,19.37
2018-01-15T16:42:29.578Z,18.17
2018-01-15T16:44:59.468Z,19.00
2018-01-15T16:47:25.861Z,19.20
2018-01-15T16:49:52.151Z,20.83
2018-01-15T16:52:18.885Z,17.63
2018-01-15T16:54:45.245Z,16.77
2018-01-15T16:57:11.635Z,18.03
2018-01-15T16:59:38.322Z,19.80
2018-01-15T17:04:31.917Z,18.70
2018-01-15T17:06:58.342Z,17.17
2018-01-15T17:09:24.658Z,18.03
2018-01-15T17:11:51.957Z,18.80
2018-01-15T17:14:18.564Z,18.80
2018-01-15T17:16:44.874Z,19.43
2018-01-15T17:19:11.468Z,18.50
2018-01-15T17:21:38.055Z,18.20
2018-01-15T17:24:04.653Z,16.17
2018-01-15T17:26:31.271Z,18.30
2018-01-15T17:28:57.799Z,16.67
2018-01-15T17:31:24.436Z,16.70
2018-01-15T17:33:50.745Z,16.17
2018-01-15T17:36:17.410Z,17.10
2018-01-15T17:38:44.406Z,16.73
2018-01-15T17:41:10.970Z,17.77
2018-01-15T17:43:38.105Z,16.37
2018-01-15T17:46:04.619Z,16.67
2018-01-15T17:48:35.760Z,18.03
2018-01-15T17:51:03.593Z,16.60
2018-01-15T17:53:30.774Z,16.53
2018-01-15T17:55:57.173Z,16.67
2018-01-15T17:58:24.103Z,15.87
2018-01-15T18:00:50.753Z,15.53
2018-01-15T18:03:17.312Z,15.37
2018-01-15T18:05:44.425Z,16.20
2018-01-15T18:08:10.756Z,16.93
2018-01-15T18:10:37.288Z,15.93
2018-01-15T18:13:04.061Z,15.07
2018-01-15T18:15:31.085Z,16.30
2018-01-15T18:18:01.280Z,15.33
2018-01-15T18:20:28.332Z,14.03
2018-01-15T18:22:55.571Z,13.63
2018-01-15T18:25:21.864Z,14.23
2018-01-15T18:27:48.469Z,16.17
2018-01-15T18:30:15.477Z,14.87
2018-01-15T18:32:41.923Z,16.77
2018-01-15T18:35:08.989Z,16.17
2018-01-15T18:37:35.271Z,14.83
2018-01-15T18:40:02.387Z,14.53
2018-01-15T18:42:28.705Z,16.00
2018-01-15T18:44:54.973Z,15.80
2018-01-15T18:47:21.298Z,14.70
2018-01-15T18:49:47.620Z,15.80
2018-01-15T18:55:25.984Z,15.10
2018-01-15T18:57:52.472Z,14.27
2018-01-15T19:00:18.786Z,13.93
2018-01-15T19:02:45.438Z,13.93
2018-01-15T19:05:11.709Z,12.43
2018-01-15T19:07:38.001Z,11.83
2018-01-15T19:10:04.326Z,12.53
2018-01-15T19:12:31.474Z,10.73
2018-01-15T19:14:57.752Z,11.77
2018-01-15T19:17:24.144Z,10.77
2018-01-15T19:19:50.493Z,10.00
2018-01-15T19:22:16.815Z,9.77
2018-01-15T19:24:43.138Z,8.60
2018-01-15T19:27:09.712Z,9.47
2018-01-15T19:29:36.023Z,7.80
2018-01-15T19:32:03.105Z,8.57
2018-01-15T19:34:29.426Z,8.27
2018-01-15T19:36:57.652Z,8.60
2018-01-15T19:39:24.018Z,9.03
2018-01-15T19:41:51.350Z,8.00
2018-01-15T19:44:23.972Z,8.47
2018-01-15T19:46:56.205Z,7.43
2018-01-15T19:49:29.403Z,7.70
2018-01-15T19:52:02.378Z,7.47
2018-01-15T19:54:35.824Z,5.80
2018-01-15T19:57:09.190Z,5.93
2018-01-15T19:59:42.345Z,6.20
2018-01-15T20:02:15.966Z,6.77
2018-01-15T20:04:48.339Z,7.47
2018-01-15T20:07:20.734Z,6.13
2018-01-15T20:09:54.168Z,4.87
2018-01-15T20:12:21.166Z,5.37
2018-01-15T20:14:47.611Z,6.23
2018-01-15T20:17:13.967Z,6.17
2018-01-15T20:19:51.795Z,5.53
2018-01-15T20:22:18.086Z,6.50
2018-01-15T20:24:44.353Z,6.00
2018-01-15T20:27:11.534Z,6.50
2018-01-15T20:29:38.002Z,6.07
2018-01-15T20:32:04.683Z,6.23
2018-01-15T20:34:30.945Z,6.67
2018-01-15T20:36:58.736Z,6.77
2018-01-15T20:39:26.923Z,8.60
2018-01-15T20:41:53.946Z,6.63
2018-01-15T20:44:20.309Z,6.40
2018-01-15T20:46:47.344Z,6.17
2018-01-15T20:49:14.362Z,7.90
2018-01-15T20:51:40.713Z,6.27
2018-01-15T20:54:10.852Z,5.93
2018-01-15T20:56:37.147Z,5.23
2018-01-15T20:59:03.486Z,6.93
2018-01-15T21:01:29.794Z,6.03
2018-01-15T21:03:58.055Z,5.63
2018-01-15T21:06:24.387Z,5.73
2018-01-15T21:08:50.673Z,5.00
2018-01-15T21:11:17.012Z,4.50
2018-01-15T21:13:43.855Z,5.37
2018-01-15T21:16:10.180Z,3.90
2018-01-15T21:18:36.495Z,4.27
2018-01-15T21:21:03.370Z,3.50
2018-01-15T21:23:29.982Z,3.60
2018-01-15T21:25:56.296Z,3.67
2018-01-15T21:28:22.682Z,3.30
2018-01-15T21:30:49.159Z,3.23
2018-01-15T21:33:15.705Z,2.83
2018-01-15T21:36:00.421Z,2.97
2018-01-15T21:38:37.570Z,3.10
2018-01-15T21:41:04.150Z,2.80
2018-01-15T21:43:30.516Z,3.03
2018-01-15T21:45:56.801Z,3.00
2018-01-15T21:48:23.110Z,3.27
2018-01-15T21:50:49.426Z,3.60
2018-01-15T21:53:15.693Z,3.43
2018-01-15T21:55:44.197Z,3.23
2018-01-15T21:58:13.569Z,4.13
2018-01-15T22:00:43.365Z,3.57
2018-01-15T22:18:44.091Z,3.30
2018-01-15T22:21:14.511Z,2.80
2018-01-15T22:23:42.986Z,3.30
2018-01-15T22:26:12.275Z,3.00
2018-01-15T22:28:41.184Z,3.40
2018-01-15T22:31:10.741Z,3.03
2018-01-15T22:33:38.506Z,2.73
2018-01-15T22:36:09.588Z,2.13
2018-01-15T22:38:38.176Z,1.50
2018-01-15T22:41:06.579Z,1.23
2018-01-15T22:43:36.016Z,1.43
2018-01-15T22:46:06.072Z,1.20
2018-01-15T22:48:36.213Z,1.47
2018-01-15T22:51:05.510Z,1.40
2018-01-15T22:53:33.518Z,1.10
2018-01-15T22:56:00.521Z,1.20
2018-01-15T22:58:30.846Z,0.90
2018-01-15T23:00:57.465Z,1.00
2018-01-15T23:03:23.798Z,0.50
2018-01-15T23:05:50.107Z,0.60
2018-01-15T23:08:17.318Z,0.33
2018-01-15T23:10:43.587Z,0.77
2018-01-15T23:13:11.939Z,0.80
2018-01-15T23:15:38.365Z,0.50
2018-01-15T23:18:04.738Z,0.30
2018-01-15T23:20:31.308Z,0.10
2018-01-15T23:22:57.621Z,0.20
2018-01-15T23:25:33.917Z,0.10
2018-01-15T23:28:06.390Z,0.10
2018-01-15T23:30:32.784Z,0.10
2018-01-15T23:33:00.030Z,0.10
2018-01-15T23:35:26.507Z,0.10
2018-01-15T23:38:03.958Z,0.10
2018-01-15T23:40:31.255Z,0.10
2018-01-15T23:42:57.634Z,0.10
2018-01-15T23:45:23.914Z,0.00
2018-01-15T23:47:50.205Z,0.10
2018-01-15T23:50:16.498Z,0.10
2018-01-15T23:52:42.785Z,0.00
2018-01-15T23:55:09.118Z,0.00
2018-01-15T23:57:35.390Z,0.00
